Time;durP1;ratioP1;P1;durP2;ratioP2;P2;SDS_P1;SDS_P2;PMS_P1;PMS_P2;Temp;Humidity;BMP_temperature;BMP_pressure;BME280_temperature;BME280_humidity;BME280_pressure;Samples;Min_cycle;Max_cycle;Signal;HPM_P1;HPM_P2
2024/03/24 00:02:15;;;;;;;8.02;2.63;;;;;;;15.16;35.45;98633.31;5090761;28;20435;-49
2024/03/24 00:04:41;;;;;;;5.18;2.05;;;;;;;15.40;35.15;98628.00;5092085;28;20031;-49
2024/03/24 00:07:07;;;;;;;8.02;1.88;;;;;;;15.32;34.36;98629.16;5090480;28;20570;-49
2024/03/24 00:09:32;;;;;;;11.75;2.30;;;;;;;15.23;34.76;98627.91;5091813;28;20027;-49
2024/03/24 00:11:58;;;;;;;25.52;2.72;;;;;;;15.38;34.49;98617.63;5090385;28;20028;-49
2024/03/24 00:14:24;;;;;;;8.90;2.17;;;;;;;15.51;34.34;98624.53;5090422;28;20020;-49
2024/03/24 00:16:50;;;;;;;7.78;2.30;;;;;;;15.41;33.93;98623.50;5091617;28;20150;-49
2024/03/24 00:19:15;;;;;;;4.20;1.83;;;;;;;15.23;33.98;98619.97;5094082;28;20039;-49
2024/03/24 00:21:41;;;;;;;6.97;1.75;;;;;;;15.09;34.38;98623.88;5094801;28;20041;-49
2024/03/24 00:24:06;;;;;;;6.20;1.48;;;;;;;14.94;34.59;98619.06;5095852;28;20461;-49
2024/03/24 00:26:32;;;;;;;6.60;1.85;;;;;;;14.78;34.88;98620.56;5095662;28;20523;-49
2024/03/24 00:28:58;;;;;;;7.70;2.42;;;;;;;14.73;34.90;98620.44;5095647;28;20020;-49
2024/03/24 00:31:23;;;;;;;6.05;1.58;;;;;;;14.71;35.00;98619.88;5094003;28;20145;-49
2024/03/24 00:33:49;;;;;;;5.28;1.70;;;;;;;14.72;35.17;98613.56;5095602;28;20119;-49
2024/03/24 00:36:15;;;;;;;8.55;1.90;;;;;;;14.72;34.95;98616.19;5094207;28;20498;-49
2024/03/24 00:38:40;;;;;;;7.68;1.98;;;;;;;14.80;35.09;98613.22;5094495;28;20024;-48
2024/03/24 00:41:06;;;;;;;6.40;2.03;;;;;;;15.03;35.12;98616.88;5094146;28;20027;-49
2024/03/24 00:43:35;;;;;;;7.03;2.25;;;;;;;15.13;35.33;98611.81;5094432;28;20486;-49
2024/03/24 00:46:03;;;;;;;4.82;1.60;;;;;;;15.14;34.89;98613.44;5095316;28;20059;-48
2024/03/24 00:48:29;;;;;;;6.05;1.98;;;;;;;15.17;34.87;98615.59;5094352;28;20466;-49
2024/03/24 00:50:55;;;;;;;9.30;2.30;;;;;;;15.21;34.91;98610.66;5095206;28;20020;-49
2024/03/24 00:53:22;;;;;;;6.57;1.65;;;;;;;15.14;34.75;98621.34;5095251;28;20028;-48
2024/03/24 00:55:48;;;;;;;7.10;1.90;;;;;;;15.00;34.84;98612.06;5095274;28;20047;-49
2024/03/24 00:58:14;;;;;;;5.20;1.35;;;;;;;14.81;34.79;98614.00;5095130;28;20047;-49
2024/03/24 01:00:39;;;;;;;8.95;2.30;;;;;;;14.84;34.98;98610.91;5095155;28;20059;-49
2024/03/24 01:03:05;;;;;;;5.97;1.77;;;;;;;14.93;35.00;98613.00;5095102;28;20031;-48
2024/03/24 01:05:31;;;;;;;5.15;1.60;;;;;;;14.87;34.64;98608.63;5094992;28;20111;-49
2024/03/24 01:07:57;;;;;;;7.32;2.28;;;;;;;14.74;34.93;98608.84;5094014;28;20446;-49
2024/03/24 01:10:22;;;;;;;8.00;1.88;;;;;;;14.65;35.07;98604.91;5093603;28;20020;-49
2024/03/24 01:12:49;;;;;;;7.63;1.85;;;;;;;14.50;35.11;98608.78;5094815;28;20062;-48
2024/03/24 01:15:18;;;;;;;6.38;1.63;;;;;;;14.57;35.54;98606.88;5095038;28;20028;-49
2024/03/24 01:17:45;;;;;;;6.40;1.73;;;;;;;14.61;35.25;98604.59;5093540;28;20035;-48
2024/03/24 01:20:11;;;;;;;7.85;1.75;;;;;;;14.68;35.16;98601.84;5094742;28;20020;-49
2024/03/24 01:22:38;;;;;;;4.43;1.40;;;;;;;14.74;35.19;98601.72;5094704;28;20058;-49
2024/03/24 01:25:05;;;;;;;6.35;1.70;;;;;;;14.71;35.59;98604.03;5094587;28;20028;-48
2024/03/24 01:27:31;;;;;;;7.50;1.70;;;;;;;14.81;35.71;98606.06;5094610;28;20020;-48
2024/03/24 01:29:56;;;;;;;5.93;1.70;;;;;;;14.93;35.19;98599.78;5094304;28;20078;-49
2024/03/24 01:32:22;;;;;;;6.70;2.38;;;;;;;14.85;35.22;98599.28;5094202;28;20079;-48
2024/03/24 01:34:48;;;;;;;4.53;1.60;;;;;;;14.81;34.98;98593.69;5094450;28;20032;-49
2024/03/24 01:37:13;;;;;;;6.28;1.80;;;;;;;14.75;35.20;98592.75;5093321;28;20024;-49
2024/03/24 01:39:43;;;;;;;9.20;1.80;;;;;;;14.70;35.56;98591.84;5094272;28;20028;-49
2024/03/24 01:42:08;;;;;;;9.98;4.03;;;;;;;14.70;35.55;98592.63;5094208;28;20024;-48
2024/03/24 01:44:34;;;;;;;10.90;5.45;;;;;;;14.78;35.69;98589.66;5094214;28;20031;-48
2024/03/24 01:47:00;;;;;;;14.15;5.57;;;;;;;14.77;35.59;98592.53;5092848;28;20452;-49
2024/03/24 01:49:25;;;;;;;9.02;2.22;;;;;;;14.75;35.57;98594.63;5093096;28;20027;-49
2024/03/24 01:51:51;;;;;;;4.60;1.80;;;;;;;14.68;35.79;98588.63;5093984;28;20032;-48
2024/03/24 01:54:18;;;;;;;6.53;1.75;;;;;;;14.60;35.75;98581.84;5094319;28;20412;-48
2024/03/24 01:56:44;;;;;;;6.40;2.25;;;;;;;14.55;35.98;98579.06;5092670;28;20031;-48
2024/03/24 01:59:10;;;;;;;6.90;1.67;;;;;;;14.50;35.97;98579.72;5092633;28;20028;-48
2024/03/24 02:01:36;;;;;;;19.67;11.93;;;;;;;14.45;35.93;98576.97;5093866;28;20045;-48
2024/03/24 02:04:09;;;;;;;15.70;5.07;;;;;;;14.42;36.11;98576.63;5092884;28;20077;-48
2024/03/24 02:06:35;;;;;;;6.10;2.30;;;;;;;14.38;36.19;98573.63;5092484;28;20020;-48
2024/03/24 02:09:02;;;;;;;13.88;2.17;;;;;;;14.35;36.27;98577.53;5093827;28;20031;-48
2024/03/24 02:11:30;;;;;;;6.70;1.30;;;;;;;14.26;36.36;98570.97;5093630;28;20031;-48
2024/03/24 02:13:59;;;;;;;6.22;1.98;;;;;;;14.19;36.38;98571.09;5093757;28;20089;-48
2024/03/24 02:16:26;;;;;;;4.18;1.40;;;;;;;14.12;36.32;98575.66;5092308;28;20028;-49
2024/03/24 02:18:52;;;;;;;7.30;1.80;;;;;;;13.98;36.58;98580.34;5092276;28;20382;-48
2024/03/24 02:21:18;;;;;;;4.80;1.55;;;;;;;13.97;36.81;98570.00;5092188;28;20516;-48
2024/03/24 02:23:43;;;;;;;7.05;2.22;;;;;;;13.90;37.03;98562.16;5092212;28;20027;-49
2024/03/24 02:26:09;;;;;;;4.82;1.75;;;;;;;13.86;37.13;98568.13;5093348;28;20032;-48
2024/03/24 02:28:35;;;;;;;8.70;2.80;;;;;;;13.97;37.01;98562.09;5092110;28;20481;-48
2024/03/24 02:31:02;;;;;;;5.43;2.80;;;;;;;13.96;36.86;98555.19;5093090;28;20063;-49
2024/03/24 02:33:28;;;;;;;10.27;3.58;;;;;;;13.95;37.03;98553.59;5093277;28;20028;-48
2024/03/24 02:35:54;;;;;;;5.50;2.22;;;;;;;13.94;36.70;98546.69;5093214;28;20020;-48
2024/03/24 02:38:19;;;;;;;8.57;1.70;;;;;;;13.91;36.71;98547.16;5093250;28;20055;-48
2024/03/24 02:40:48;;;;;;;9.75;3.55;;;;;;;13.84;36.75;98546.44;5092449;28;20486;-49
2024/03/24 02:43:14;;;;;;;5.05;1.23;;;;;;;13.68;37.13;98538.13;5093097;28;20031;-49
2024/03/24 02:45:40;;;;;;;6.07;1.25;;;;;;;13.49;37.06;98533.94;5093129;28;20016;-48
2024/03/24 02:48:06;;;;;;;5.18;1.30;;;;;;;13.40;37.68;98536.06;5091949;28;20073;-49
2024/03/24 02:50:31;;;;;;;7.53;1.60;;;;;;;13.42;37.71;98534.03;5092943;28;20016;-48
2024/03/24 02:52:57;;;;;;;5.30;1.50;;;;;;;13.47;37.87;98533.34;5093116;28;20055;-48
2024/03/24 02:55:25;;;;;;;8.88;1.85;;;;;;;13.51;37.60;98532.66;5092873;28;20020;-49
2024/03/24 02:57:53;;;;;;;5.82;1.38;;;;;;;13.39;37.84;98537.09;5092684;28;20081;-48
2024/03/24 03:00:19;;;;;;;3.03;1.00;;;;;;;13.39;37.87;98537.09;5092672;28;20020;-49
2024/03/24 03:02:45;;;;;;;4.82;1.40;;;;;;;13.35;38.40;98536.72;5092772;28;20401;-49
2024/03/24 03:05:11;;;;;;;6.93;2.13;;;;;;;13.51;38.31;98529.22;5074561;28;20028;-48
2024/03/24 03:07:37;;;;;;;1697.50;759.00;;;;;;;13.58;38.56;98540.47;5092591;28;20503;-48
2024/03/24 03:10:09;;;;;;;445.88;402.85;;;;;;;13.62;38.30;98527.66;5092545;28;20432;-48
2024/03/24 03:12:37;;;;;;;40.53;32.60;;;;;;;13.70;38.53;98528.19;5091180;28;20077;-48
2024/03/24 03:15:04;;;;;;;15.95;6.57;;;;;;;13.85;38.28;98522.47;5092396;28;20089;-49
2024/03/24 03:17:31;;;;;;;7.55;3.17;;;;;;;13.94;38.14;98530.84;5092464;28;20555;-49
2024/03/24 03:19:57;;;;;;;6.93;5.10;;;;;;;13.99;37.99;98525.72;5092403;28;20043;-48
2024/03/24 03:22:23;;;;;;;10.23;5.40;;;;;;;13.97;38.32;98522.50;5091325;28;20024;-48
2024/03/24 03:24:49;;;;;;;6.97;3.80;;;;;;;13.99;38.16;98525.72;5092552;28;20028;-49
2024/03/24 03:27:14;;;;;;;12.52;5.43;;;;;;;14.09;38.17;98522.53;5092281;28;20020;-49
2024/03/24 03:29:40;;;;;;;5.35;3.03;;;;;;;14.23;38.17;98525.78;5090943;28;20417;-49
2024/03/24 03:32:06;;;;;;;10.25;2.67;;;;;;;14.32;38.05;98529.66;5092056;28;20047;-48
2024/03/24 03:34:32;;;;;;;7.07;2.42;;;;;;;14.34;37.74;98528.41;5092167;28;20016;-49
2024/03/24 03:36:58;;;;;;;8.43;2.10;;;;;;;14.43;37.57;98525.41;5092118;28;20028;-49
2024/03/24 03:39:24;;;;;;;6.82;2.42;;;;;;;14.45;37.78;98526.81;5092097;28;20050;-49
2024/03/24 03:41:52;;;;;;;9.35;2.47;;;;;;;14.44;37.80;98527.03;5090772;28;20035;-49
2024/03/24 03:44:18;;;;;;;4.75;2.88;;;;;;;14.52;37.70;98532.78;5092035;28;20059;-49
2024/03/24 03:46:44;;;;;;;10.48;5.88;;;;;;;14.51;37.54;98525.09;5092017;28;20486;-49
2024/03/24 03:49:14;;;;;;;7.10;2.22;;;;;;;14.52;37.30;98527.50;5090976;28;20112;-49
2024/03/24 03:51:44;;;;;;;4.18;1.50;;;;;;;14.47;37.75;98522.09;5091828;28;20069;-49
2024/03/24 03:54:11;;;;;;;5.38;1.50;;;;;;;14.49;37.63;98527.97;5091935;28;20024;-49
2024/03/24 03:56:40;;;;;;;3.45;1.60;;;;;;;14.54;37.86;98524.63;5091941;28;20058;-49
2024/03/24 03:59:06;;;;;;;8.02;2.00;;;;;;;14.58;37.84;98523.97;5090709;28;20024;-49
2024/03/24 04:01:32;;;;;;;5.22;1.60;;;;;;;14.51;37.74;98525.09;5091849;28;20059;-49
2024/03/24 04:03:59;;;;;;;5.38;2.95;;;;;;;14.45;37.95;98531.31;5091908;28;20027;-49
2024/03/24 04:06:26;;;;;;;7.95;1.92;;;;;;;14.38;37.97;98518.19;5091732;28;20024;-49
2024/03/24 04:08:51;;;;;;;4.88;1.45;;;;;;;14.23;37.46;98531.06;5091803;28;20024;-48
2024/03/24 04:11:17;;;;;;;6.70;1.50;;;;;;;14.05;38.00;98535.38;5091662;28;20069;-49
2024/03/24 04:13:43;;;;;;;7.47;2.58;;;;;;;14.03;38.18;98526.09;5091771;28;20152;-49
2024/03/24 04:16:08;;;;;;;6.32;1.27;;;;;;;14.04;38.42;98535.59;5091718;28;20043;-48
2024/03/24 04:18:34;;;;;;;10.05;1.30;;;;;;;14.04;38.25;98536.38;5091732;28;20031;-48
2024/03/24 04:21:03;;;;;;;2.88;1.10;;;;;;;14.02;38.20;98533.16;5091722;28;20409;-48
2024/03/24 04:23:32;;;;;;;4.35;1.35;;;;;;;14.10;38.07;98532.84;5091691;28;20035;-48
2024/03/24 04:25:57;;;;;;;5.47;1.17;;;;;;;14.08;38.10;98529.63;5091671;28;20024;-48
2024/03/24 04:28:23;;;;;;;3.33;1.20;;;;;;;14.01;38.27;98534.22;5090300;28;20428;-49
2024/03/24 04:30:49;;;;;;;9.10;2.30;;;;;;;13.95;38.26;98529.84;5089995;28;20046;-49
2024/03/24 04:33:14;;;;;;;6.28;1.35;;;;;;;13.89;38.63;98534.19;5091756;28;20490;-48
2024/03/24 04:35:40;;;;;;;6.30;1.92;;;;;;;13.89;38.42;98536.03;5090545;28;20024;-49
2024/03/24 04:38:05;;;;;;;4.13;1.30;;;;;;;13.92;38.51;98532.91;5091569;28;20020;-49
2024/03/24 04:40:31;;;;;;;7.60;1.25;;;;;;;13.95;38.53;98535.91;5090492;28;20020;-49
2024/03/24 04:42:57;;;;;;;7.50;1.52;;;;;;;13.94;38.76;98536.13;5091499;28;20444;-49
2024/03/24 04:45:23;;;;;;;7.18;1.50;;;;;;;13.95;38.54;98541.19;5090450;28;20031;-49
2024/03/24 04:47:48;;;;;;;5.45;1.10;;;;;;;13.82;38.40;98540.56;5090177;28;20485;-48
2024/03/24 04:50:14;;;;;;;6.53;1.27;;;;;;;13.73;38.66;98540.09;5090106;28;20110;-49
2024/03/24 04:52:40;;;;;;;7.50;1.17;;;;;;;13.68;38.54;98548.69;5091355;28;20099;-49
2024/03/24 04:55:06;;;;;;;4.18;1.42;;;;;;;13.77;39.01;98546.53;5091357;28;20515;-49
2024/03/24 04:57:32;;;;;;;3.70;1.00;;;;;;;13.70;39.13;98541.34;5090032;28;20444;-49
2024/03/24 04:59:57;;;;;;;5.18;1.42;;;;;;;13.64;38.70;98547.50;5091284;28;20560;-49
2024/03/24 05:02:23;;;;;;;8.15;1.27;;;;;;;13.55;39.15;98548.84;5089995;28;20398;-48
2024/03/24 05:04:50;;;;;;;2.47;1.00;;;;;;;13.55;38.95;98544.38;5093842;28;20039;-48
2024/03/24 05:07:15;;;;;;;4.38;1.17;;;;;;;13.53;39.25;98541.16;5094926;28;20020;-48
2024/03/24 05:09:42;;;;;;;6.53;1.58;;;;;;;13.48;38.94;98548.13;5093652;28;20028;-49
2024/03/24 05:12:08;;;;;;;3.75;1.23;;;;;;;13.51;39.25;98545.84;5094819;28;20031;-49
2024/03/24 05:14:35;;;;;;;5.50;3.22;;;;;;;13.60;39.34;98543.69;5094865;28;20020;-49
2024/03/24 05:17:01;;;;;;;5.35;1.20;;;;;;;13.64;39.66;98546.69;5094780;28;20096;-49
2024/03/24 05:19:27;;;;;;;6.30;1.35;;;;;;;13.65;39.27;98548.31;5094776;28;20107;-49
2024/03/24 05:21:52;;;;;;;7.18;1.73;;;;;;;13.56;39.37;98542.53;5094708;28;20478;-49
2024/03/24 05:24:18;;;;;;;3.50;1.30;;;;;;;13.59;39.55;98550.81;5094675;28;20016;-49
2024/03/24 05:26:44;;;;;;;4.72;1.13;;;;;;;13.61;39.59;98549.81;5094676;28;20059;-49
2024/03/24 05:29:09;;;;;;;5.35;1.40;;;;;;;13.58;39.58;98543.94;5094572;28;20130;-49
2024/03/24 05:31:35;;;;;;;5.55;1.20;;;;;;;13.64;39.72;98544.88;5094240;28;20410;-49
2024/03/24 05:34:01;;;;;;;8.35;2.80;;;;;;;13.62;39.72;98548.75;5093197;28;20494;-49
2024/03/24 05:36:27;;;;;;;6.28;1.50;;;;;;;13.61;40.01;98552.44;5094663;28;20073;-49
2024/03/24 05:38:53;;;;;;;8.13;1.80;;;;;;;13.78;40.70;98559.50;5094445;28;20099;-49
2024/03/24 05:41:19;;;;;;;7.13;1.23;;;;;;;13.85;41.67;98561.25;5094303;28;20088;-49
2024/03/24 05:43:44;;;;;;;3.05;1.13;;;;;;;13.81;41.76;98568.78;5094336;28;20023;-48
2024/03/24 05:46:10;;;;;;;5.10;1.20;;;;;;;13.73;41.88;98577.81;5092994;28;20070;-48
2024/03/24 05:48:36;;;;;;;7.50;2.33;;;;;;;13.75;42.25;98590.78;5094338;28;20047;-48
2024/03/24 05:51:04;;;;;;;7.32;1.80;;;;;;;13.68;45.92;98601.44;5092889;28;20024;-48
2024/03/24 05:53:30;;;;;;;10.45;1.98;;;;;;;13.22;49.53;98608.03;5094161;28;20095;-47
2024/03/24 05:56:02;;;;;;;7.53;2.05;;;;;;;12.41;54.66;98640.53;5094146;28;20032;-47
2024/03/24 05:58:29;;;;;;;9.95;5.05;;;;;;;11.77;57.54;98638.63;5094362;28;20061;-47
2024/03/24 06:00:55;;;;;;;6.20;2.67;;;;;;;11.25;61.00;98656.19;5092725;28;20024;-47
2024/03/24 06:03:21;;;;;;;5.25;1.30;;;;;;;10.88;63.91;98650.53;5093954;28;20435;-47
2024/03/24 06:05:46;;;;;;;6.78;1.65;;;;;;;10.58;65.95;98650.16;5092927;28;20470;-47
2024/03/24 06:08:22;;;;;;;6.00;2.90;;;;;;;10.49;69.59;98646.13;5093822;28;20393;-46
2024/03/24 06:10:48;;;;;;;10.80;5.88;;;;;;;10.52;70.73;98641.28;5092067;28;20036;-46
2024/03/24 06:13:13;;;;;;;12.88;4.53;;;;;;;10.68;72.57;98640.03;5093701;28;20547;-46
2024/03/24 06:15:39;;;;;;;18.33;12.07;;;;;;;10.89;73.70;98641.66;5092937;28;20024;-47
2024/03/24 06:18:06;;;;;;;20.90;18.77;;;;;;;10.91;74.15;98642.28;5092342;28;20024;-47
2024/03/24 06:20:38;;;;;;;12.00;4.72;;;;;;;10.88;74.90;98647.13;5093526;28;20405;-47
2024/03/24 06:23:05;;;;;;;9.68;5.00;;;;;;;10.92;76.23;98646.50;5093515;28;20016;-47
2024/03/24 06:25:31;;;;;;;6.88;3.38;;;;;;;11.12;77.00;98656.19;5092130;28;20077;-47
2024/03/24 06:27:59;;;;;;;8.75;4.28;;;;;;;11.37;77.36;98654.53;5093432;28;20050;-47
2024/03/24 06:30:24;;;;;;;8.25;5.25;;;;;;;11.79;78.08;98662.06;5093153;28;20425;-47
2024/03/24 06:32:50;;;;;;;7.65;2.45;;;;;;;12.08;78.21;98662.59;5092026;28;20107;-47
2024/03/24 06:35:16;;;;;;;4.00;1.60;;;;;;;12.28;77.07;98665.09;5093531;28;20032;-47
2024/03/24 06:37:42;;;;;;;9.48;2.40;;;;;;;12.33;77.60;98665.25;5093280;28;20148;-47
2024/03/24 06:40:09;;;;;;;8.68;2.47;;;;;;;12.37;77.68;98663.81;5091793;28;20069;-47
2024/03/24 06:42:43;;;;;;;5.10;1.33;;;;;;;12.05;76.17;98666.41;5075138;28;20110;-47
2024/03/24 06:45:12;;;;;;;5.53;1.40;;;;;;;11.72;75.45;98663.91;5093068;28;20028;-47
2024/03/24 06:47:38;;;;;;;6.40;3.50;;;;;;;11.49;76.59;98664.38;5091873;28;20077;-47
2024/03/24 06:50:05;;;;;;;3.38;1.52;;;;;;;11.56;78.59;98667.81;5092968;28;20023;-47
2024/03/24 06:52:35;;;;;;;4.30;1.05;;;;;;;11.94;78.11;98660.00;5091929;28;20077;-47
2024/03/24 06:55:01;;;;;;;7.40;2.45;;;;;;;12.54;77.63;98664.13;5092972;28;20451;-47
2024/03/24 06:57:27;;;;;;;5.70;1.38;;;;;;;12.92;74.13;98660.59;5092909;28;20027;-47
2024/03/24 06:59:54;;;;;;;6.80;1.33;;;;;;;13.12;73.67;98657.75;5092885;28;20502;-47
2024/03/24 07:02:20;;;;;;;4.38;1.08;;;;;;;13.08;72.09;98656.59;5091458;28;20054;-47
2024/03/24 07:04:46;;;;;;;1.90;0.93;;;;;;;13.19;72.49;98658.50;5092801;28;20099;-48
2024/03/24 07:07:11;;;;;;;3.67;1.33;;;;;;;13.47;72.14;98657.25;5092922;28;20055;-47
2024/03/24 07:09:37;;;;;;;6.22;1.83;;;;;;;14.49;69.09;98646.78;5091426;28;20065;-48
2024/03/24 07:12:04;;;;;;;5.07;1.10;;;;;;;15.48;64.25;98648.78;5092558;28;20069;-48
2024/03/24 07:14:30;;;;;;;3.72;1.30;;;;;;;16.74;62.02;98641.81;5092521;28;20495;-48
2024/03/24 07:16:56;;;;;;;6.85;1.10;;;;;;;17.87;57.27;98638.06;5092537;28;20486;-48
2024/03/24 07:19:22;;;;;;;4.53;1.13;;;;;;;18.74;52.84;98652.16;5091199;28;20028;-48
2024/03/24 07:21:48;;;;;;;5.07;1.23;;;;;;;18.11;50.92;98654.50;5092416;28;20112;-48
2024/03/24 07:24:14;;;;;;;4.53;1.00;;;;;;;17.29;50.38;98669.44;5092437;28;20020;-48
2024/03/24 07:26:39;;;;;;;3.15;0.90;;;;;;;16.69;49.58;98671.69;5092179;28;20099;-48
2024/03/24 07:29:05;;;;;;;3.88;0.90;;;;;;;16.22;47.57;98669.31;5092341;28;20020;-49
2024/03/24 07:31:31;;;;;;;2.83;0.93;;;;;;;15.82;48.09;98680.72;5092085;28;20073;-49
2024/03/24 07:33:57;;;;;;;3.17;1.10;;;;;;;15.47;49.24;98678.91;5092319;28;20042;-48
2024/03/24 07:36:23;;;;;;;4.53;0.82;;;;;;;15.32;49.29;98683.88;5092502;28;20504;-48
2024/03/24 07:38:49;;;;;;;3.55;0.85;;;;;;;15.25;49.43;98680.53;5092295;28;20396;-48
2024/03/24 07:41:17;;;;;;;3.28;0.93;;;;;;;15.47;47.40;98676.25;5092153;28;20036;-48
2024/03/24 07:43:43;;;;;;;2.70;0.68;;;;;;;17.17;43.85;98674.84;5092100;28;20073;-48
2024/03/24 07:46:08;;;;;;;0.98;0.50;;;;;;;19.28;39.88;98662.66;5092089;28;20085;-47
2024/03/24 07:48:34;;;;;;;4.30;0.82;;;;;;;19.81;39.02;98669.84;5092091;28;20028;-46
2024/03/24 07:51:00;;;;;;;1.55;0.80;;;;;;;20.90;35.90;98667.09;5091995;28;20016;-46
2024/03/24 07:53:25;;;;;;;2.63;0.70;;;;;;;21.92;33.78;98660.66;5092045;28;20020;-46
2024/03/24 07:55:51;;;;;;;4.35;1.10;;;;;;;22.84;30.85;98664.59;5092001;28;20025;-46
2024/03/24 07:58:17;;;;;;;3.42;0.77;;;;;;;23.77;29.99;98667.13;5091930;28;20470;-47
2024/03/24 08:00:43;;;;;;;4.95;1.20;;;;;;;22.67;30.25;98670.38;5091956;28;20505;-47
2024/03/24 08:03:09;;;;;;;2.03;0.85;;;;;;;21.33;32.49;98673.69;5091877;28;20065;-46
2024/03/24 08:05:35;;;;;;;2.20;0.98;;;;;;;20.51;31.61;98686.25;5091887;28;20031;-46
2024/03/24 08:08:00;;;;;;;4.50;2.00;;;;;;;20.61;31.97;98688.16;5091912;28;20024;-47
2024/03/24 08:10:26;;;;;;;4.38;0.93;;;;;;;20.55;31.72;98682.00;5090512;28;20115;-46
2024/03/24 08:12:52;;;;;;;6.40;0.80;;;;;;;22.56;30.01;98675.00;5090439;28;20031;-46
2024/03/24 08:15:18;;;;;;;2.00;1.20;;;;;;;23.77;27.25;98672.50;5091726;28;20040;-46
2024/03/24 08:17:44;;;;;;;3.45;1.08;;;;;;;23.08;27.49;98680.72;5091742;28;20036;-47
2024/03/24 08:20:10;;;;;;;1.73;0.60;;;;;;;21.46;28.62;98684.88;5073678;28;20028;-46
2024/03/24 08:22:36;;;;;;;4.35;0.82;;;;;;;19.75;30.74;98691.13;5091717;28;20498;-47
2024/03/24 08:25:03;;;;;;;3.13;1.50;;;;;;;18.55;32.55;98700.38;5091670;28;20031;-46
2024/03/24 08:27:28;;;;;;;3.10;1.20;;;;;;;17.81;33.88;98710.69;5091608;28;20036;-46
2024/03/24 08:29:54;;;;;;;3.30;0.70;;;;;;;17.55;34.19;98711.19;5090361;28;20559;-46
2024/03/24 08:32:20;;;;;;;6.00;1.00;;;;;;;17.30;34.75;98708.16;5095370;28;20040;-47
2024/03/24 08:34:45;;;;;;;4.78;1.08;;;;;;;17.09;35.64;98710.50;5090298;28;20437;-46
2024/03/24 08:37:11;;;;;;;2.17;0.70;;;;;;;17.42;35.66;98705.41;5090383;28;20082;-46
2024/03/24 08:39:37;;;;;;;3.92;1.10;;;;;;;17.95;34.75;98706.66;5093923;28;20031;-46
2024/03/24 08:42:03;;;;;;;13.90;6.95;;;;;;;18.40;33.58;98702.88;5095512;28;20027;-46
2024/03/24 08:44:29;;;;;;;6.85;2.20;;;;;;;18.60;33.10;98709.47;5095443;28;20020;-46
2024/03/24 08:46:54;;;;;;;5.95;3.38;;;;;;;18.58;32.99;98703.59;5094077;28;20059;-46
2024/03/24 08:49:20;;;;;;;4.18;1.17;;;;;;;18.57;32.83;98716.06;5095415;28;20074;-46
2024/03/24 08:51:49;;;;;;;2.92;1.10;;;;;;;18.82;32.29;98710.22;5093933;28;20086;-46
2024/03/24 08:54:15;;;;;;;3.60;1.33;;;;;;;18.91;32.00;98707.88;5095192;28;20023;-46
2024/03/24 08:56:41;;;;;;;21.27;3.25;;;;;;;18.77;31.99;98705.63;5095239;28;20104;-46
2024/03/24 08:59:07;;;;;;;14.80;1.90;;;;;;;18.47;32.66;98714.13;5095241;28;20099;-46
2024/03/24 09:01:32;;;;;;;7.47;1.35;;;;;;;18.47;32.60;98714.13;5093811;28;20066;-46
2024/03/24 09:03:59;;;;;;;6.43;2.03;;;;;;;18.75;31.99;98704.25;5095127;28;20077;-46
2024/03/24 09:06:25;;;;;;;4.75;1.80;;;;;;;19.16;31.63;98709.94;5095332;28;20111;-46
2024/03/24 09:08:50;;;;;;;4.70;1.27;;;;;;;19.66;30.64;98710.47;5095354;28;20104;-46
2024/03/24 09:11:16;;;;;;;4.72;2.10;;;;;;;20.51;29.86;98711.06;5094884;28;20027;-46
2024/03/24 09:13:42;;;;;;;3.72;1.13;;;;;;;21.28;29.12;98705.72;5094955;28;20051;-46
2024/03/24 09:16:07;;;;;;;6.35;1.70;;;;;;;21.36;28.22;98715.06;5094846;28;20024;-46
2024/03/24 09:18:34;;;;;;;3.50;1.20;;;;;;;20.84;28.88;98710.84;5076671;28;20026;-46
2024/03/24 09:21:06;;;;;;;5.75;1.35;;;;;;;21.12;29.22;98709.47;5095035;28;20506;-46
2024/03/24 09:23:32;;;;;;;6.97;1.77;;;;;;;20.85;28.76;98718.56;5093398;28;20016;-46
2024/03/24 09:25:59;;;;;;;5.05;1.00;;;;;;;20.40;29.74;98705.97;5094674;28;20405;-46
2024/03/24 09:28:25;;;;;;;4.68;1.67;;;;;;;20.68;29.48;98707.34;5094674;28;20562;-46
2024/03/24 09:31:02;;;;;;;7.25;2.90;;;;;;;21.88;27.07;98697.81;5093230;28;20020;-47
2024/03/24 09:33:29;;;;;;;14.32;12.25;;;;;;;21.33;27.13;98699.59;5094857;28;20032;-46
2024/03/24 09:36:02;;;;;;;8.20;6.95;;;;;;;21.46;28.17;98687.56;5094567;28;20024;-46
2024/03/24 09:38:28;;;;;;;9.07;3.00;;;;;;;22.66;26.76;98687.50;5093168;28;20036;-46
2024/03/24 09:40:54;;;;;;;8.93;4.97;;;;;;;24.17;24.69;98676.53;5094635;28;20028;-46
2024/03/24 09:43:21;;;;;;;4.97;2.05;;;;;;;24.90;23.44;98668.97;5094309;28;20103;-46
2024/03/24 09:45:49;;;;;;;6.43;1.73;;;;;;;25.10;23.34;98660.56;5092970;28;20084;-46
2024/03/24 09:48:16;;;;;;;7.40;1.48;;;;;;;24.74;23.31;98657.72;5094289;28;20028;-47
2024/03/24 09:50:43;;;;;;;5.50;1.30;;;;;;;23.45;24.42;98653.28;5094093;28;20822;-46
2024/03/24 09:53:10;;;;;;;4.18;0.93;;;;;;;23.92;24.43;98661.59;5094135;28;20038;-46
2024/03/24 09:55:36;;;;;;;3.10;0.98;;;;;;;25.30;22.84;98648.66;5092794;28;20111;-46
2024/03/24 09:58:12;;;;;;;3.08;1.17;;;;;;;26.20;21.87;98629.34;5092715;28;20147;-47
2024/03/24 10:00:37;;;;;;;2.55;1.10;;;;;;;27.08;21.82;98633.34;5094047;28;20505;-47
2024/03/24 10:03:04;;;;;;;2.85;0.95;;;;;;;27.92;19.79;98644.25;5093986;28;20047;-47
2024/03/24 10:05:32;;;;;;;4.65;1.00;;;;;;;27.07;19.79;98643.34;5093907;28;20027;-46
2024/03/24 10:08:01;;;;;;;3.47;1.00;;;;;;;25.02;21.74;98645.13;5093922;28;20024;-47
2024/03/24 10:10:27;;;;;;;3.42;1.15;;;;;;;23.71;23.62;98651.09;5093870;28;20024;-47
2024/03/24 10:12:56;;;;;;;2.47;0.95;;;;;;;24.03;22.73;98636.25;5093730;28;20500;-46
2024/03/24 10:15:27;;;;;;;2.67;1.08;;;;;;;23.31;23.08;98645.16;5093726;28;20051;-46
2024/03/24 10:18:02;;;;;;;2.75;0.90;;;;;;;23.24;23.38;98650.06;5093717;28;20024;-46
2024/03/24 10:20:28;;;;;;;6.45;1.42;;;;;;;22.88;23.59;98638.88;5093609;28;20031;-46
2024/03/24 10:22:56;;;;;;;2.75;1.02;;;;;;;22.19;24.44;98640.72;5093662;28;20036;-46
2024/03/24 10:25:24;;;;;;;1.75;0.82;;;;;;;21.13;25.17;98641.72;5093562;28;20056;-46
2024/03/24 10:27:53;;;;;;;2.78;0.80;;;;;;;20.01;26.67;98648.59;5093459;28;20032;-46
2024/03/24 10:30:19;;;;;;;3.72;0.93;;;;;;;19.13;28.32;98652.69;5093460;28;20085;-46
2024/03/24 10:32:45;;;;;;;2.88;0.90;;;;;;;18.43;29.97;98656.41;5093176;28;20048;-46
2024/03/24 10:35:11;;;;;;;6.18;1.10;;;;;;;17.85;33.29;98658.72;5093225;28;20023;-46
2024/03/24 10:37:37;;;;;;;5.22;1.05;;;;;;;17.18;36.92;98673.78;5093324;28;20027;-46
2024/03/24 10:40:13;;;;;;;2.15;0.70;;;;;;;16.24;39.26;98669.88;5093287;28;20028;-45
2024/03/24 10:42:54;;;;;;;6.28;0.80;;;;;;;15.32;43.21;98670.66;5092006;28;20027;-45
2024/03/24 10:45:24;;;;;;;4.18;0.88;;;;;;;14.52;44.64;98679.84;5093209;28;20039;-45
2024/03/24 10:47:57;;;;;;;6.55;1.20;;;;;;;14.10;47.19;98683.25;5091947;28;20443;-48
2024/03/24 10:50:24;;;;;;;4.00;0.77;;;;;;;14.31;49.15;98678.53;5093129;28;20038;-47
2024/03/24 10:52:55;;;;;;;5.40;0.93;;;;;;;14.86;47.82;98682.84;5092955;28;20028;-48
2024/03/24 10:55:23;;;;;;;4.80;1.38;;;;;;;15.54;44.55;98670.88;5075161;28;20028;-48
2024/03/24 10:57:49;;;;;;;3.45;1.48;;;;;;;16.38;42.07;98671.19;5092946;28;20059;-48
2024/03/24 11:00:15;;;;;;;2.15;0.82;;;;;;;17.74;39.70;98655.94;5074644;28;20035;-48
2024/03/24 11:02:43;;;;;;;1.75;0.77;;;;;;;20.12;35.46;98652.06;5092343;28;20497;-46
2024/03/24 11:05:10;;;;;;;2.38;0.90;;;;;;;22.57;30.76;98630.31;5092815;28;20028;-46
2024/03/24 11:07:39;;;;;;;1.80;0.95;;;;;;;24.34;26.96;98627.72;5092737;28;20024;-47
2024/03/24 11:10:05;;;;;;;0.43;0.43;;;;;;;25.61;24.14;98628.44;5091327;28;20482;-47
2024/03/24 11:12:34;;;;;;;1.23;0.60;;;;;;;26.59;23.71;98621.72;5092565;28;20081;-47
2024/03/24 11:15:00;;;;;;;1.35;0.70;;;;;;;27.91;22.16;98621.09;5091301;28;20115;-47
2024/03/24 11:17:27;;;;;;;2.70;1.40;;;;;;;28.80;20.59;98619.59;5091326;28;20493;-47
2024/03/24 11:19:53;;;;;;;2.33;0.80;;;;;;;29.25;20.18;98616.41;5092548;28;20024;-47
2024/03/24 11:22:35;;;;;;;4.68;0.68;;;;;;;30.03;18.74;98607.00;5092437;28;20042;-47
2024/03/24 11:25:07;;;;;;;1.05;0.32;;;;;;;30.33;18.20;98609.63;5092477;28;20077;-47
2024/03/24 11:27:42;;;;;;;2.13;0.60;;;;;;;28.91;18.79;98619.22;5091114;28;20024;-47
2024/03/24 11:30:15;;;;;;;1.60;0.52;;;;;;;27.32;19.97;98618.75;5092374;28;20055;-47